Adams Run, South Carolina
Current Conditions -  °F | °C
As of 12:15 AM on Wednesday 26 Nov 2014 (Local Time) from KJZI Reporting Station
Heavy Rain Heavy Rain  
Wind Chill: 63°   Ceiling: 900
Heat Index: 63°   Visibility: 1.5mi
Dew Point: 63°   Wind: 8mph
Humidity: 100%   Direction: 350°N
Pressure: 29.85"   Gusts: NA
Location:  32.72°N, 80.35°W
Report Text: KJZI 260515Z AUTO 35007KT 1 1/2SM +RA SCT002 OVC009 17/17 A2985 RMK A02 P000
Loading
Personal Weather Stations






























Interactive Weather Map New forecast layout! Learn more

10-Day Weather Forecast

Advertisements
Track Severe Weather on mobile